Time;durP1;ratioP1;P1;durP2;ratioP2;P2;SDS_P1;SDS_P2;PMS_P1;PMS_P2;Temp;Humidity;BMP_temperature;BMP_pressure;BME280_temperature;BME280_humidity;BME280_pressure;Samples;Min_cycle;Max_cycle;Signal;HPM_P1;HPM_P2
2023/01/22 00:01:50;;;;;;;4.50;2.28;;;;;;;;;;4977929;28;20340;-79
2023/01/22 00:04:36;;;;;;;5.63;2.58;;;;;;;;;;4976867;28;20368;-78
2023/01/22 00:07:22;;;;;;;7.00;2.72;;;;;;;;;;4977261;28;20015;-78
2023/01/22 00:10:08;;;;;;;6.53;2.67;;;;;;;;;;4975653;28;20363;-78
2023/01/22 00:12:53;;;;;;;7.72;2.53;;;;;;;;;;4975880;28;20033;-78
2023/01/22 00:15:39;;;;;;;5.90;2.50;;;;;;;;;;4975582;28;20023;-78
2023/01/22 00:18:25;;;;;;;6.15;2.30;;;;;;;;;;4975782;28;20455;-77
2023/01/22 00:21:11;;;;;;;7.07;2.83;;;;;;;;;;4976762;28;20023;-78
2023/01/22 00:23:57;;;;;;;8.30;2.72;;;;;;;;;;4975888;28;20094;-78
2023/01/22 00:26:43;;;;;;;6.85;2.33;;;;;;;;;;4974064;28;20026;-78
2023/01/22 00:29:28;;;;;;;5.90;2.50;;;;;;;;;;4975659;28;20027;-77
2023/01/22 00:32:14;;;;;;;9.15;2.25;;;;;;;;;;4975867;28;20089;-78
2023/01/22 00:35:00;;;;;;;9.27;2.20;;;;;;;;;;4976958;28;20128;-77
2023/01/22 00:37:47;;;;;;;10.38;2.58;;;;;;;;;;4995763;28;20315;-78
2023/01/22 00:40:32;;;;;;;6.97;2.40;;;;;;;;;;4995007;28;20114;-77
2023/01/22 00:43:18;;;;;;;4.47;2.00;;;;;;;;;;4995992;28;20420;-78
2023/01/22 00:46:04;;;;;;;12.32;2.70;;;;;;;;;;4995423;28;20027;-78
2023/01/22 00:48:50;;;;;;;5.53;2.10;;;;;;;;;;4983671;28;20108;-78
2023/01/22 00:51:38;;;;;;;3.70;2.17;;;;;;;;;;4985629;28;20069;-78
2023/01/22 00:54:23;;;;;;;6.25;2.55;;;;;;;;;;4998252;28;20447;-79
2023/01/22 00:57:09;;;;;;;7.18;2.45;;;;;;;;;;4984896;28;20351;-77
2023/01/22 00:59:54;;;;;;;9.15;2.85;;;;;;;;;;4999394;28;20029;-78
2023/01/22 01:05:44;;;;;;;7.13;2.78;;;;;;;;;;4999274;28;20458;-77
2023/01/22 01:08:33;;;;;;;6.28;2.58;;;;;;;;;;4984954;28;20065;-79
2023/01/22 01:11:23;;;;;;;6.97;2.90;;;;;;;;;;4998610;28;20177;-79
2023/01/22 01:14:09;;;;;;;9.45;3.03;;;;;;;;;;4984782;28;20022;-78
2023/01/22 01:16:55;;;;;;;8.43;2.80;;;;;;;;;;4985470;28;20026;-78
2023/01/22 01:19:42;;;;;;;7.20;3.05;;;;;;;;;;4999151;28;20046;-79
2023/01/22 01:22:28;;;;;;;7.30;2.67;;;;;;;;;;4998405;28;20014;-78
2023/01/22 01:25:13;;;;;;;6.47;2.38;;;;;;;;;;4983949;28;20042;-78
2023/01/22 01:27:59;;;;;;;9.60;3.15;;;;;;;;;;4997691;28;20426;-78
2023/01/22 01:30:45;;;;;;;6.60;2.67;;;;;;;;;;4996933;28;20054;-78
2023/01/22 01:33:31;;;;;;;7.07;3.00;;;;;;;;;;4997169;28;20092;-78
2023/01/22 01:36:17;;;;;;;8.60;2.75;;;;;;;;;;4997909;28;20053;-78
2023/01/22 01:39:03;;;;;;;8.93;2.95;;;;;;;;;;4997284;28;20026;-78
2023/01/22 01:41:49;;;;;;;8.88;3.05;;;;;;;;;;4983522;28;20190;-78
2023/01/22 01:44:35;;;;;;;10.32;3.63;;;;;;;;;;4983977;28;20018;-78
2023/01/22 01:47:31;;;;;;;8.38;3.28;;;;;;;;;;4998419;28;20027;-78
2023/01/22 01:50:18;;;;;;;6.82;2.85;;;;;;;;;;4997206;28;20023;-79
2023/01/22 01:53:04;;;;;;;11.02;3.30;;;;;;;;;;4996745;28;20108;-78
2023/01/22 01:55:50;;;;;;;12.15;3.28;;;;;;;;;;4984156;28;20033;-78
2023/01/22 01:58:36;;;;;;;6.40;2.78;;;;;;;;;;4997912;28;20086;-79
2023/01/22 02:01:22;;;;;;;8.70;2.63;;;;;;;;;;4981369;28;20410;-78
2023/01/22 02:04:08;;;;;;;6.03;3.10;;;;;;;;;;4997595;28;20033;-78
2023/01/22 02:06:54;;;;;;;7.45;3.25;;;;;;;;;;4996910;28;20105;-79
2023/01/22 02:09:39;;;;;;;9.65;2.92;;;;;;;;;;4983685;28;20462;-79
2023/01/22 02:12:25;;;;;;;6.95;3.00;;;;;;;;;;4983073;28;20446;-79
2023/01/22 02:15:11;;;;;;;9.85;3.20;;;;;;;;;;4982971;28;20026;-79
2023/01/22 02:17:56;;;;;;;7.35;3.22;;;;;;;;;;4983424;28;20077;-79
2023/01/22 02:20:58;;;;;;;8.20;3.20;;;;;;;;;;4982972;28;20010;-79
2023/01/22 02:23:44;;;;;;;7.72;3.28;;;;;;;;;;4996478;28;20014;-79
2023/01/22 02:26:29;;;;;;;8.48;3.65;;;;;;;;;;4997225;28;20045;-79
2023/01/22 02:29:15;;;;;;;6.55;2.92;;;;;;;;;;4984413;28;20038;-78
2023/01/22 02:32:01;;;;;;;8.13;3.47;;;;;;;;;;5005353;28;20025;-78
2023/01/22 02:34:46;;;;;;;8.65;3.55;;;;;;;;;;4995916;28;20026;-79
2023/01/22 02:37:32;;;;;;;11.68;3.40;;;;;;;;;;4997534;28;20038;-78
2023/01/22 02:40:17;;;;;;;8.85;3.13;;;;;;;;;;4982685;28;20022;-78
2023/01/22 02:43:03;;;;;;;9.93;3.63;;;;;;;;;;4997359;28;20049;-78
2023/01/22 02:45:49;;;;;;;9.82;3.42;;;;;;;;;;4983832;28;20025;-79
2023/01/22 02:48:34;;;;;;;7.05;3.20;;;;;;;;;;4983575;28;20027;-78
2023/01/22 02:51:20;;;;;;;8.60;3.17;;;;;;;;;;4997595;28;20467;-77
2023/01/22 02:54:05;;;;;;;10.27;3.83;;;;;;;;;;4985301;28;20086;-77
2023/01/22 02:56:51;;;;;;;8.52;3.20;;;;;;;;;;5002759;28;20026;-77
2023/01/22 02:59:37;;;;;;;9.68;3.80;;;;;;;;;;4983853;28;20040;-78
2023/01/22 03:02:22;;;;;;;9.40;4.03;;;;;;;;;;4998605;28;20048;-78
2023/01/22 03:05:08;;;;;;;14.73;4.10;;;;;;;;;;4982934;28;20037;-77
2023/01/22 03:07:53;;;;;;;14.48;3.53;;;;;;;;;;4982896;28;20026;-78
2023/01/22 03:10:39;;;;;;;7.95;3.45;;;;;;;;;;4997324;28;20050;-78
2023/01/22 03:22:38;;;;;;;8.75;4.03;;;;;;;;;;4996221;28;20022;-79
2023/01/22 03:25:24;;;;;;;8.15;3.50;;;;;;;;;;4983044;28;20026;-79
2023/01/22 03:28:17;;;;;;;10.73;3.85;;;;;;;;;;4982491;28;20065;-79
2023/01/22 03:31:05;;;;;;;11.70;3.50;;;;;;;;;;4982555;28;20566;-79
2023/01/22 03:33:51;;;;;;;7.82;3.28;;;;;;;;;;4981998;28;20081;-78
2023/01/22 03:36:37;;;;;;;7.53;3.30;;;;;;;;;;4994611;28;20154;-78
2023/01/22 03:39:22;;;;;;;9.05;3.08;;;;;;;;;;4982588;28;20109;-78
2023/01/22 03:42:08;;;;;;;8.60;3.63;;;;;;;;;;4981762;28;20411;-78
2023/01/22 03:44:53;;;;;;;6.75;3.10;;;;;;;;;;4982588;28;20325;-79
2023/01/22 03:47:39;;;;;;;9.07;3.05;;;;;;;;;;4981185;28;20034;-80
2023/01/22 03:50:24;;;;;;;11.23;3.63;;;;;;;;;;4995090;28;20084;-79
2023/01/22 03:53:10;;;;;;;8.85;2.90;;;;;;;;;;4981355;28;20112;-78
2023/01/22 03:55:57;;;;;;;9.18;3.38;;;;;;;;;;4994462;28;20023;-78
2023/01/22 03:58:42;;;;;;;8.73;2.92;;;;;;;;;;4995959;28;20049;-78
2023/01/22 04:01:28;;;;;;;8.10;2.97;;;;;;;;;;4995950;28;20031;-79
2023/01/22 04:04:14;;;;;;;7.68;2.95;;;;;;;;;;4995806;28;20022;-78
2023/01/22 04:06:59;;;;;;;7.05;2.97;;;;;;;;;;4996034;28;20026;-78
2023/01/22 04:09:45;;;;;;;9.98;3.47;;;;;;;;;;4995175;28;20398;-79
2023/01/22 04:12:31;;;;;;;6.63;3.80;;;;;;;;;;4995470;28;20035;-79
2023/01/22 04:15:16;;;;;;;9.52;4.25;;;;;;;;;;4982397;28;20033;-79
2023/01/22 04:18:02;;;;;;;8.23;4.30;;;;;;;;;;4981866;28;20084;-79
2023/01/22 04:20:48;;;;;;;10.68;4.68;;;;;;;;;;4981959;28;20014;-79
2023/01/22 04:23:34;;;;;;;11.77;5.20;;;;;;;;;;4996965;28;20045;-79
2023/01/22 04:26:19;;;;;;;11.05;4.63;;;;;;;;;;4998414;28;20058;-78
2023/01/22 04:29:05;;;;;;;16.20;6.00;;;;;;;;;;5000392;28;20042;-78
2023/01/22 04:31:50;;;;;;;9.55;5.57;;;;;;;;;;4987738;28;20049;-79
2023/01/22 04:34:36;;;;;;;12.55;5.60;;;;;;;;;;4998036;28;20392;-78
2023/01/22 04:37:22;;;;;;;13.15;5.55;;;;;;;;;;4999686;28;20042;-79
2023/01/22 04:40:08;;;;;;;12.70;5.90;;;;;;;;;;4998640;28;20049;-78
2023/01/22 04:42:53;;;;;;;15.32;5.55;;;;;;;;;;4999115;28;20019;-79
2023/01/22 04:45:39;;;;;;;12.18;6.70;;;;;;;;;;5002130;28;20037;-78
2023/01/22 04:48:25;;;;;;;12.50;5.53;;;;;;;;;;5006522;28;20558;-78
2023/01/22 04:51:10;;;;;;;11.65;5.45;;;;;;;;;;5011170;28;20037;-77
2023/01/22 04:53:56;;;;;;;13.18;5.60;;;;;;;;;;5012504;28;20073;-77
2023/01/22 04:56:41;;;;;;;10.57;5.35;;;;;;;;;;4999516;28;20084;-78
2023/01/22 04:59:27;;;;;;;11.88;5.80;;;;;;;;;;4998230;28;20034;-79
2023/01/22 05:02:13;;;;;;;9.32;4.90;;;;;;;;;;4985078;28;20342;-79
2023/01/22 05:04:58;;;;;;;10.98;5.20;;;;;;;;;;4984049;28;20030;-79
2023/01/22 05:07:44;;;;;;;14.93;5.35;;;;;;;;;;4984122;28;20030;-79
2023/01/22 05:10:29;;;;;;;10.98;4.50;;;;;;;;;;4997416;28;20098;-79
2023/01/22 05:13:15;;;;;;;12.00;4.00;;;;;;;;;;4997867;28;20029;-79
2023/01/22 05:16:00;;;;;;;9.23;3.85;;;;;;;;;;4983908;28;20107;-78
2023/01/22 05:18:46;;;;;;;11.27;3.83;;;;;;;;;;4999132;28;20474;-79
2023/01/22 05:21:32;;;;;;;11.07;4.18;;;;;;;;;;4998834;28;20026;-79
2023/01/22 05:24:17;;;;;;;7.65;3.10;;;;;;;;;;4998478;28;20014;-78
2023/01/22 05:27:03;;;;;;;7.90;3.22;;;;;;;;;;5008776;28;20036;-78
2023/01/22 05:29:48;;;;;;;10.32;3.25;;;;;;;;;;5014428;28;20023;-79
2023/01/22 05:32:34;;;;;;;7.80;3.05;;;;;;;;;;4999254;28;20018;-77
2023/01/22 05:35:21;;;;;;;10.43;3.38;;;;;;;;;;4998364;28;20158;-79
2023/01/22 05:38:06;;;;;;;7.25;3.83;;;;;;;;;;4984567;28;20030;-79
2023/01/22 05:40:52;;;;;;;6.90;3.58;;;;;;;;;;4998295;28;20014;-78
2023/01/22 05:43:38;;;;;;;9.13;2.80;;;;;;;;;;4998259;28;20029;-79
2023/01/22 05:46:24;;;;;;;9.15;3.70;;;;;;;;;;4997867;28;20033;-78
2023/01/22 05:49:09;;;;;;;10.68;3.40;;;;;;;;;;4999771;28;20438;-78
2023/01/22 05:51:55;;;;;;;9.35;3.15;;;;;;;;;;4999262;28;20026;-78
2023/01/22 05:54:40;;;;;;;11.00;3.97;;;;;;;;;;4997732;28;20034;-79
2023/01/22 05:57:28;;;;;;;8.77;3.40;;;;;;;;;;5007630;28;20003;-76
2023/01/22 06:00:14;;;;;;;9.43;3.80;;;;;;;;;;5006981;28;20037;-78
2023/01/22 06:03:00;;;;;;;11.05;4.00;;;;;;;;;;5008693;28;20019;-79
2023/01/22 06:05:45;;;;;;;8.68;4.15;;;;;;;;;;4990831;28;20362;-79
2023/01/22 06:08:32;;;;;;;11.20;4.30;;;;;;;;;;4998042;28;20026;-78
2023/01/22 06:11:17;;;;;;;8.68;3.88;;;;;;;;;;4984282;28;20026;-79
2023/01/22 06:14:03;;;;;;;9.18;3.92;;;;;;;;;;4997617;28;20030;-79
2023/01/22 06:16:49;;;;;;;8.77;3.50;;;;;;;;;;4996172;28;20034;-79
2023/01/22 06:19:35;;;;;;;10.27;4.43;;;;;;;;;;4983582;28;20022;-78
2023/01/22 06:22:20;;;;;;;7.93;3.67;;;;;;;;;;4997535;28;20085;-79
2023/01/22 06:25:08;;;;;;;6.88;3.17;;;;;;;;;;4996300;28;20018;-79
2023/01/22 06:27:53;;;;;;;7.45;3.83;;;;;;;;;;4996494;28;20026;-78
2023/01/22 06:30:39;;;;;;;9.57;3.72;;;;;;;;;;4996130;28;20030;-78
2023/01/22 06:33:24;;;;;;;10.23;4.40;;;;;;;;;;4983717;28;20026;-79
2023/01/22 06:36:10;;;;;;;8.82;4.00;;;;;;;;;;4976942;28;20039;-79
2023/01/22 06:38:56;;;;;;;11.30;3.88;;;;;;;;;;4976331;28;20050;-78
2023/01/22 06:41:41;;;;;;;11.32;4.65;;;;;;;;;;4976058;28;20463;-78
2023/01/22 06:44:27;;;;;;;8.80;4.10;;;;;;;;;;4976682;28;20464;-79
2023/01/22 06:47:12;;;;;;;11.45;4.20;;;;;;;;;;4976491;28;20027;-79
2023/01/22 06:49:58;;;;;;;14.23;4.32;;;;;;;;;;4976521;28;20023;-79
2023/01/22 06:52:44;;;;;;;12.40;4.90;;;;;;;;;;4976739;28;20440;-79
2023/01/22 06:55:29;;;;;;;8.98;4.00;;;;;;;;;;4976212;28;20026;-78
2023/01/22 06:58:15;;;;;;;8.27;3.75;;;;;;;;;;4975465;28;20026;-79
2023/01/22 07:01:01;;;;;;;10.65;4.07;;;;;;;;;;4975738;28;20078;-78
2023/01/22 07:03:47;;;;;;;9.43;3.65;;;;;;;;;;4976977;28;20062;-78
2023/01/22 07:06:32;;;;;;;7.60;3.63;;;;;;;;;;4976874;28;20225;-79
2023/01/22 07:09:18;;;;;;;13.90;4.45;;;;;;;;;;4974931;28;20026;-77
2023/01/22 07:12:04;;;;;;;8.73;3.90;;;;;;;;;;4974895;28;20051;-78
2023/01/22 07:14:49;;;;;;;9.07;3.90;;;;;;;;;;4976572;28;20027;-78
2023/01/22 07:17:36;;;;;;;8.80;4.20;;;;;;;;;;4976983;28;20026;-78
2023/01/22 07:20:22;;;;;;;11.15;4.40;;;;;;;;;;4976472;28;20105;-78
2023/01/22 07:23:08;;;;;;;7.68;3.95;;;;;;;;;;4976062;28;20033;-78
2023/01/22 07:25:54;;;;;;;8.20;3.80;;;;;;;;;;4976222;28;20027;-78
2023/01/22 07:28:39;;;;;;;8.18;3.55;;;;;;;;;;4975568;28;20023;-78
2023/01/22 07:31:25;;;;;;;10.23;3.88;;;;;;;;;;4976239;28;20065;-79
2023/01/22 07:34:10;;;;;;;10.23;4.10;;;;;;;;;;4975102;28;20058;-78
2023/01/22 07:36:56;;;;;;;10.85;3.70;;;;;;;;;;4976058;28;20130;-78
2023/01/22 07:39:42;;;;;;;9.20;3.88;;;;;;;;;;4975961;28;20050;-78
2023/01/22 07:42:27;;;;;;;11.00;3.83;;;;;;;;;;4975079;28;20333;-78
2023/01/22 07:45:13;;;;;;;11.88;4.28;;;;;;;;;;4974654;28;20049;-79
2023/01/22 07:47:59;;;;;;;9.20;3.55;;;;;;;;;;4975274;28;20038;-78
2023/01/22 07:50:44;;;;;;;10.45;4.20;;;;;;;;;;4975319;28;20332;-78
2023/01/22 07:53:31;;;;;;;10.85;4.70;;;;;;;;;;4974843;28;20074;-78
2023/01/22 07:56:18;;;;;;;9.55;4.18;;;;;;;;;;4976166;28;20031;-79
2023/01/22 07:59:04;;;;;;;15.13;5.03;;;;;;;;;;4978270;28;20439;-79
2023/01/22 08:01:50;;;;;;;14.38;5.38;;;;;;;;;;4980197;28;20026;-78
2023/01/22 08:04:35;;;;;;;8.85;4.30;;;;;;;;;;4978777;28;20046;-79
2023/01/22 08:07:22;;;;;;;10.30;4.38;;;;;;;;;;4979649;28;20019;-79
2023/01/22 08:10:08;;;;;;;11.25;4.85;;;;;;;;;;4980054;28;20025;-79
2023/01/22 08:12:53;;;;;;;10.63;4.43;;;;;;;;;;4978786;28;20117;-79
2023/01/22 08:15:40;;;;;;;10.05;5.38;;;;;;;;;;4978727;28;20439;-79
2023/01/22 08:18:26;;;;;;;15.85;5.88;;;;;;;;;;4979479;28;20125;-79
2023/01/22 08:21:11;;;;;;;12.98;5.70;;;;;;;;;;4978424;28;20115;-78
2023/01/22 08:23:59;;;;;;;12.63;6.55;;;;;;;;;;4978713;28;20011;-79
2023/01/22 08:26:45;;;;;;;13.35;6.00;;;;;;;;;;4979666;28;20110;-79
2023/01/22 08:29:31;;;;;;;18.55;6.93;;;;;;;;;;4979345;28;20034;-78
2023/01/22 08:32:19;;;;;;;13.70;6.88;;;;;;;;;;4978741;28;20034;-78
2023/01/22 08:35:05;;;;;;;17.17;7.68;;;;;;;;;;4982809;28;20054;-79
2023/01/22 08:37:51;;;;;;;13.10;7.15;;;;;;;;;;4998815;28;20033;-79
2023/01/22 08:40:36;;;;;;;14.57;6.50;;;;;;;;;;4999523;28;20025;-79
2023/01/22 08:43:22;;;;;;;17.05;7.57;;;;;;;;;;4999354;28;20057;-78
2023/01/22 08:46:08;;;;;;;20.60;9.57;;;;;;;;;;4986303;28;20029;-79
2023/01/22 08:48:53;;;;;;;13.40;6.82;;;;;;;;;;4999164;28;20053;-79
2023/01/22 08:51:39;;;;;;;11.27;6.93;;;;;;;;;;4999888;28;20516;-79
2023/01/22 08:54:25;;;;;;;12.38;6.68;;;;;;;;;;5005151;28;20034;-78
2023/01/22 08:57:10;;;;;;;13.52;7.18;;;;;;;;;;5006758;28;20026;-78
2023/01/22 08:59:56;;;;;;;13.25;7.40;;;;;;;;;;5005587;28;20044;-80
2023/01/22 09:02:41;;;;;;;18.85;7.78;;;;;;;;;;4983870;28;20014;-79
2023/01/22 09:05:27;;;;;;;13.75;8.10;;;;;;;;;;4985996;28;20049;-79
2023/01/22 09:08:13;;;;;;;14.27;7.90;;;;;;;;;;4999588;28;20034;-78
2023/01/22 09:10:58;;;;;;;19.35;10.00;;;;;;;;;;4998829;28;20046;-80
2023/01/22 09:13:44;;;;;;;16.35;10.70;;;;;;;;;;4998507;28;20356;-79
2023/01/22 09:16:30;;;;;;;19.73;10.20;;;;;;;;;;4997541;28;20038;-79
2023/01/22 09:19:16;;;;;;;16.95;10.23;;;;;;;;;;4997549;28;20033;-79
2023/01/22 09:22:05;;;;;;;18.90;9.82;;;;;;;;;;4997377;28;20018;-79
2023/01/22 09:24:50;;;;;;;17.48;8.70;;;;;;;;;;4984197;28;20018;-79
2023/01/22 09:27:36;;;;;;;15.48;10.20;;;;;;;;;;4984315;28;20364;-79
2023/01/22 09:30:25;;;;;;;17.15;10.25;;;;;;;;;;4998013;28;20499;-79
2023/01/22 09:33:11;;;;;;;22.92;12.63;;;;;;;;;;4983496;28;20023;-78
2023/01/22 09:36:10;;;;;;;17.08;9.13;;;;;;;;;;4977683;28;20051;-78
2023/01/22 09:38:55;;;;;;;16.73;10.30;;;;;;;;;;4978427;28;20026;-79
2023/01/22 09:41:47;;;;;;;16.08;9.43;;;;;;;;;;4977119;28;20120;-79
2023/01/22 09:44:37;;;;;;;15.18;7.82;;;;;;;;;;4977874;28;20046;-78
2023/01/22 09:47:30;;;;;;;14.60;7.97;;;;;;;;;;4978497;28;20337;-78
2023/01/22 09:50:20;;;;;;;12.98;8.30;;;;;;;;;;4977827;28;20449;-78
2023/01/22 09:53:10;;;;;;;16.95;8.20;;;;;;;;;;4978311;28;20419;-78
2023/01/22 09:55:56;;;;;;;18.30;8.88;;;;;;;;;;4977982;28;20289;-78
2023/01/22 09:58:42;;;;;;;17.20;10.05;;;;;;;;;;4978479;28;20058;-79
2023/01/22 10:01:28;;;;;;;20.00;9.88;;;;;;;;;;4977490;28;20019;-78
2023/01/22 10:04:21;;;;;;;19.50;9.80;;;;;;;;;;4977683;28;20047;-77
2023/01/22 10:07:11;;;;;;;16.75;9.07;;;;;;;;;;4977273;28;20116;-77
2023/01/22 10:10:00;;;;;;;19.45;9.55;;;;;;;;;;4976918;28;20037;-78
2023/01/22 10:12:49;;;;;;;19.42;9.90;;;;;;;;;;4977089;28;20023;-78
2023/01/22 10:15:35;;;;;;;16.70;9.43;;;;;;;;;;4977768;28;20019;-79
2023/01/22 10:18:23;;;;;;;17.42;9.43;;;;;;;;;;4976618;28;20015;-78
2023/01/22 10:21:19;;;;;;;25.05;11.38;;;;;;;;;;4975973;28;20050;-77
2023/01/22 10:24:08;;;;;;;20.88;10.90;;;;;;;;;;4978211;28;20027;-77
2023/01/22 10:26:54;;;;;;;22.55;11.52;;;;;;;;;;4982518;28;20053;-77
2023/01/22 10:29:40;;;;;;;22.60;11.55;;;;;;;;;;4989778;28;20022;-76
2023/01/22 10:32:26;;;;;;;23.83;11.85;;;;;;;;;;4987134;28;20022;-77
2023/01/22 10:35:12;;;;;;;21.75;11.45;;;;;;;;;;4981277;28;20042;-78
2023/01/22 10:37:58;;;;;;;21.02;12.07;;;;;;;;;;4982097;28;20258;-78
2023/01/22 10:40:44;;;;;;;18.85;11.98;;;;;;;;;;4995836;28;20053;-78
2023/01/22 10:43:37;;;;;;;22.40;11.75;;;;;;;;;;4996637;28;20014;-79
2023/01/22 10:46:23;;;;;;;20.83;12.10;;;;;;;;;;4995624;28;20114;-79
2023/01/22 10:49:22;;;;;;;22.73;11.80;;;;;;;;;;4995917;28;20061;-79
2023/01/22 10:52:18;;;;;;;21.60;11.27;;;;;;;;;;4982273;28;20034;-80
2023/01/22 10:55:04;;;;;;;19.02;11.07;;;;;;;;;;4982072;28;20061;-78
2023/01/22 10:57:53;;;;;;;21.88;11.82;;;;;;;;;;4982862;28;20032;-79
2023/01/22 11:00:39;;;;;;;21.83;11.30;;;;;;;;;;5011931;28;20023;-78
2023/01/22 11:03:42;;;;;;;22.38;10.85;;;;;;;;;;4999477;28;20439;-77
2023/01/22 11:06:35;;;;;;;15.57;9.02;;;;;;;;;;4982786;28;20092;-78
2023/01/22 11:09:30;;;;;;;18.05;9.05;;;;;;;;;;5005189;28;20029;-79
2023/01/22 11:12:18;;;;;;;15.82;10.00;;;;;;;;;;4982246;28;20117;-78
2023/01/22 11:15:23;;;;;;;22.80;10.55;;;;;;;;;;4996101;28;20022;-78
2023/01/22 11:18:44;;;;;;;17.45;10.13;;;;;;;;;;4982796;28;20113;-78
2023/01/22 11:21:38;;;;;;;16.08;9.93;;;;;;;;;;4916672;29;20493;-77
2023/01/22 11:24:31;;;;;;;18.15;10.25;;;;;;;;;;4981355;28;20117;-78
2023/01/22 11:27:29;;;;;;;16.98;11.23;;;;;;;;;;4995722;28;20463;-78
2023/01/22 11:30:14;;;;;;;19.08;11.82;;;;;;;;;;4996103;28;20367;-78
2023/01/22 11:33:04;;;;;;;17.88;10.65;;;;;;;;;;5005047;28;20023;-78
2023/01/22 11:35:57;;;;;;;17.17;10.57;;;;;;;;;;5003202;28;20042;-78
2023/01/22 11:38:51;;;;;;;17.13;10.48;;;;;;;;;;4983235;28;20062;-79
2023/01/22 11:41:55;;;;;;;19.05;10.50;;;;;;;;;;4996242;28;20010;-78
2023/01/22 11:44:46;;;;;;;22.48;11.20;;;;;;;;;;4983187;28;20021;-79
2023/01/22 11:47:32;;;;;;;22.17;12.75;;;;;;;;;;4995491;28;20032;-79
2023/01/22 11:50:29;;;;;;;33.05;17.10;;;;;;;;;;4995667;28;20479;-78
2023/01/22 11:53:14;;;;;;;29.83;16.45;;;;;;;;;;4995363;28;20065;-78
2023/01/22 11:56:09;;;;;;;26.60;15.00;;;;;;;;;;4995439;28;20037;-78
2023/01/22 11:59:00;;;;;;;23.33;13.38;;;;;;;;;;4995049;28;20023;-80
2023/01/22 12:01:49;;;;;;;23.08;13.35;;;;;;;;;;4995654;28;20042;-79
2023/01/22 12:04:47;;;;;;;24.02;13.77;;;;;;;;;;4981320;28;20351;-79
2023/01/22 12:07:51;;;;;;;23.55;11.95;;;;;;;;;;4995295;28;20077;-79
2023/01/22 12:10:58;;;;;;;22.50;12.63;;;;;;;;;;4981341;28;20030;-79
2023/01/22 12:14:02;;;;;;;21.55;12.30;;;;;;;;;;4994444;28;20486;-79
2023/01/22 12:17:06;;;;;;;24.70;12.27;;;;;;;;;;4994308;28;20034;-78
2023/01/22 12:19:55;;;;;;;23.88;13.30;;;;;;;;;;4994920;28;20307;-78
2023/01/22 12:22:49;;;;;;;24.45;15.13;;;;;;;;;;4994619;28;20029;-80
2023/01/22 12:25:46;;;;;;;23.25;13.35;;;;;;;;;;4981500;28;20070;-79
2023/01/22 12:28:35;;;;;;;19.00;11.35;;;;;;;;;;4994590;28;20022;-78
2023/01/22 12:31:36;;;;;;;23.80;12.95;;;;;;;;;;4994885;28;20031;-78
2023/01/22 12:34:26;;;;;;;21.50;13.43;;;;;;;;;;4981125;28;20026;-79
2023/01/22 12:37:17;;;;;;;24.20;12.98;;;;;;;;;;4974939;28;20039;-79
2023/01/22 12:40:24;;;;;;;24.65;12.73;;;;;;;;;;4975325;28;20019;-78
2023/01/22 12:43:10;;;;;;;22.30;13.23;;;;;;;;;;4961689;28;20372;-79
2023/01/22 12:46:01;;;;;;;22.13;11.55;;;;;;;;;;4965238;28;20078;-78
2023/01/22 12:48:47;;;;;;;25.60;13.88;;;;;;;;;;4965413;28;20023;-79
2023/01/22 12:51:41;;;;;;;23.88;13.75;;;;;;;;;;4978668;28;20439;-79
2023/01/22 12:54:35;;;;;;;24.13;13.85;;;;;;;;;;4965480;28;20025;-79
2023/01/22 12:57:20;;;;;;;25.20;14.60;;;;;;;;;;4965018;28;20037;-79
2023/01/22 13:00:10;;;;;;;20.90;13.07;;;;;;;;;;4965268;28;20423;-78
2023/01/22 13:02:56;;;;;;;22.63;12.35;;;;;;;;;;4978041;28;20031;-78
2023/01/22 13:05:45;;;;;;;23.15;11.85;;;;;;;;;;4978248;28;20058;-78
2023/01/22 13:08:34;;;;;;;22.05;12.35;;;;;;;;;;4978079;28;20503;-79
2023/01/22 13:11:27;;;;;;;21.13;12.20;;;;;;;;;;4978094;28;20041;-79
2023/01/22 13:14:18;;;;;;;20.45;11.88;;;;;;;;;;4977961;28;20018;-79
2023/01/22 13:17:15;;;;;;;24.23;12.90;;;;;;;;;;4978165;28;20093;-78
2023/01/22 13:20:01;;;;;;;23.52;13.40;;;;;;;;;;4977584;28;20062;-78
2023/01/22 13:22:47;;;;;;;22.70;12.63;;;;;;;;;;4978020;28;20049;-79
2023/01/22 13:25:33;;;;;;;26.92;13.60;;;;;;;;;;4963856;28;20026;-78
2023/01/22 13:28:18;;;;;;;24.13;13.70;;;;;;;;;;4977991;28;20133;-79
2023/01/22 13:31:05;;;;;;;22.80;14.32;;;;;;;;;;4977285;28;20026;-78
2023/01/22 13:33:51;;;;;;;22.73;13.15;;;;;;;;;;4964922;28;20038;-78
2023/01/22 13:36:43;;;;;;;24.90;14.07;;;;;;;;;;4993251;28;20038;-79
2023/01/22 13:39:31;;;;;;;25.10;14.32;;;;;;;;;;4996755;28;20112;-78
2023/01/22 13:42:16;;;;;;;26.50;14.63;;;;;;;;;;4997045;28;20178;-78
2023/01/22 13:45:03;;;;;;;25.52;15.10;;;;;;;;;;4996754;28;20018;-79
2023/01/22 13:47:51;;;;;;;23.73;13.82;;;;;;;;;;4983780;28;20022;-78
2023/01/22 13:50:37;;;;;;;24.20;11.90;;;;;;;;;;4996816;28;20355;-79
2023/01/22 13:53:32;;;;;;;15.45;9.45;;;;;;;;;;4983150;28;20093;-79
2023/01/22 13:56:19;;;;;;;17.92;9.57;;;;;;;;;;4997724;28;20101;-78
2023/01/22 13:59:15;;;;;;;18.70;9.80;;;;;;;;;;4996957;28;20107;-79
2023/01/22 14:02:17;;;;;;;18.30;9.30;;;;;;;;;;4984625;28;20038;-79
2023/01/22 14:05:03;;;;;;;16.80;9.23;;;;;;;;;;4996263;28;20069;-79
2023/01/22 14:07:49;;;;;;;18.13;10.20;;;;;;;;;;4996533;28;20025;-79
2023/01/22 14:10:35;;;;;;;30.30;18.15;;;;;;;;;;4996099;28;20503;-79
2023/01/22 14:13:20;;;;;;;25.30;13.63;;;;;;;;;;4996814;28;20022;-79
2023/01/22 14:16:06;;;;;;;15.93;8.93;;;;;;;;;;4996601;28;20069;-79
2023/01/22 14:18:52;;;;;;;17.65;8.23;;;;;;;;;;4996256;28;20106;-79
2023/01/22 14:21:38;;;;;;;12.13;7.78;;;;;;;;;;4982790;28;20022;-79
2023/01/22 14:24:24;;;;;;;15.85;7.50;;;;;;;;;;4983751;28;20351;-79
2023/01/22 14:27:10;;;;;;;13.50;7.60;;;;;;;;;;4983009;28;20026;-79
2023/01/22 14:29:55;;;;;;;12.95;7.05;;;;;;;;;;4982639;28;20168;-80
2023/01/22 14:32:42;;;;;;;12.77;7.65;;;;;;;;;;4982719;28;20042;-79
2023/01/22 14:35:27;;;;;;;13.60;7.82;;;;;;;;;;4976823;28;20082;-78
2023/01/22 14:38:13;;;;;;;13.05;8.43;;;;;;;;;;4975982;28;20033;-78
2023/01/22 14:41:01;;;;;;;15.35;8.60;;;;;;;;;;4976634;28;20022;-78
2023/01/22 14:43:47;;;;;;;15.73;8.95;;;;;;;;;;4977317;28;20045;-79
2023/01/22 14:46:33;;;;;;;14.48;8.80;;;;;;;;;;4978348;28;20081;-78
2023/01/22 14:49:19;;;;;;;16.90;9.27;;;;;;;;;;4987245;28;20023;-79
2023/01/22 14:52:05;;;;;;;17.13;8.82;;;;;;;;;;4985238;28;20015;-79
2023/01/22 14:54:51;;;;;;;17.58;8.68;;;;;;;;;;4979808;28;20038;-79
2023/01/22 14:57:36;;;;;;;16.67;9.35;;;;;;;;;;4976969;28;20027;-79
2023/01/22 15:00:22;;;;;;;19.25;9.57;;;;;;;;;;4976807;28;20022;-78
2023/01/22 15:03:07;;;;;;;20.58;12.85;;;;;;;;;;4976600;28;20435;-79
2023/01/22 15:05:53;;;;;;;22.23;12.15;;;;;;;;;;4976250;28;20089;-79
2023/01/22 15:08:39;;;;;;;21.08;12.27;;;;;;;;;;4974905;28;20023;-78
2023/01/22 15:11:24;;;;;;;24.70;12.43;;;;;;;;;;4975423;28;20030;-79
2023/01/22 15:14:10;;;;;;;20.88;12.13;;;;;;;;;;4975604;28;20191;-79
2023/01/22 15:16:56;;;;;;;21.17;12.48;;;;;;;;;;4975160;28;20359;-79
2023/01/22 15:19:41;;;;;;;17.23;11.52;;;;;;;;;;4975693;28;20019;-79
2023/01/22 15:22:27;;;;;;;21.88;12.43;;;;;;;;;;4975410;28;20476;-78
2023/01/22 15:25:12;;;;;;;19.08;12.05;;;;;;;;;;4975510;28;20054;-79
2023/01/22 15:27:58;;;;;;;20.10;11.15;;;;;;;;;;4976008;28;20101;-79
2023/01/22 15:30:45;;;;;;;20.60;12.73;;;;;;;;;;4974862;28;20110;-79
2023/01/22 15:33:31;;;;;;;21.05;13.18;;;;;;;;;;4976239;28;20015;-79
2023/01/22 15:36:16;;;;;;;31.70;16.92;;;;;;;;;;4987752;28;20056;-79
2023/01/22 15:39:02;;;;;;;28.98;16.67;;;;;;;;;;4995919;28;20080;-79
2023/01/22 15:41:48;;;;;;;29.60;16.33;;;;;;;;;;4981584;28;20030;-79
2023/01/22 15:44:33;;;;;;;24.42;14.75;;;;;;;;;;4980957;28;20073;-80
2023/01/22 15:47:19;;;;;;;27.65;16.25;;;;;;;;;;4995564;28;20033;-79
2023/01/22 15:50:05;;;;;;;22.33;13.10;;;;;;;;;;4995683;28;20026;-80
2023/01/22 15:52:53;;;;;;;19.40;13.07;;;;;;;;;;4995371;28;20033;-80
2023/01/22 15:55:39;;;;;;;22.05;14.00;;;;;;;;;;4995134;28;20041;-80
2023/01/22 15:58:25;;;;;;;23.88;13.23;;;;;;;;;;4981636;28;20038;-80
2023/01/22 16:01:10;;;;;;;27.42;14.38;;;;;;;;;;4996111;28;20014;-80
2023/01/22 16:04:00;;;;;;;25.42;16.60;;;;;;;;;;4997314;28;20022;-79
2023/01/22 16:06:46;;;;;;;22.10;13.32;;;;;;;;;;5003347;28;20018;-78
2023/01/22 16:09:31;;;;;;;19.88;9.75;;;;;;;;;;5005902;28;20026;-78
2023/01/22 16:12:17;;;;;;;22.75;12.57;;;;;;;;;;4988277;28;20439;-80
2023/01/22 16:15:04;;;;;;;18.90;12.75;;;;;;;;;;4995943;28;20105;-78
2023/01/22 16:17:49;;;;;;;18.80;12.27;;;;;;;;;;4994759;28;20050;-80
2023/01/22 16:20:35;;;;;;;22.17;12.27;;;;;;;;;;4983532;28;20018;-79
2023/01/22 16:23:21;;;;;;;21.13;12.73;;;;;;;;;;4998894;28;20019;-79
2023/01/22 16:26:08;;;;;;;23.55;13.15;;;;;;;;;;4998410;28;20462;-79
2023/01/22 16:28:54;;;;;;;25.58;15.20;;;;;;;;;;4998495;28;20030;-78
2023/01/22 16:31:40;;;;;;;22.40;14.10;;;;;;;;;;4998109;28;20018;-79
2023/01/22 16:34:25;;;;;;;29.30;18.30;;;;;;;;;;4998197;28;20102;-78
2023/01/22 16:37:11;;;;;;;29.08;17.85;;;;;;;;;;4985297;28;20053;-79
2023/01/22 16:39:57;;;;;;;34.40;18.63;;;;;;;;;;4997771;28;20019;-80
2023/01/22 16:42:58;;;;;;;21.23;14.18;;;;;;;;;;4998519;28;20023;-79